Latest Weather Observations for Jimna

IDQ60801

Issued at 10:02 pm EST Friday 4 September 2015 (issued every 30 minutes, with the page automatically refreshed every 10 minutes)

About weather observations | Map of weather stations | Latest weather observations for QLD | Other Formats
Station Details ID: 040651 Name: JIMNA FORESTRY Lat: -26.66 Lon: 152.46 Height: 523.0 m
Data from the previous 72 hours. | See also: Recent months at Jimna
Date/Time
EST
Temp
°C
App
Temp
°C
Dew
Point
Rel
Hum
%
Delta-T
°C
Wind Press
QNH
hPa
Press
MSL
hPa
Rain
since 9 am
mm
Dir
 
Spd
km/h
Gust
km/h
Spd
kts
Gust
kts
04/10:00pm 11.7 - 9.3 85 1.2 - - - - - - - 0.0
04/09:30pm 12.3 - 9.7 84 1.4 - - - - - - - 0.0
04/09:00pm 13.0 - 9.8 81 1.7 - - - - - - - 0.0
04/08:30pm 13.2 - 9.5 78 1.9 - - - - - - - 0.0
04/08:00pm 13.1 - 9.4 78 1.9 - - - - - - - 0.0
04/07:30pm 11.2 - 8.2 82 1.5 - - - - - - - 0.0
04/07:00pm 11.8 - 8.6 81 1.6 - - - - - - - 0.0
04/06:30pm 12.1 - 8.2 77 2.0 - - - - - - - 0.0
04/06:00pm 13.0 - 8.3 73 2.4 - - - - - - - 0.0
04/05:30pm 14.1 - 7.9 66 3.2 - - - - - - - 0.0
04/05:00pm 15.5 - 8.7 64 3.6 - - - - - - - 0.0
04/04:30pm 17.5 - 7.8 53 5.0 - - - - - - - 0.0
04/04:00pm 18.4 - 6.3 45 6.2 - - - - - - - 0.0
04/03:30pm 20.3 - 7.0 42 6.9 - - - - - - - 0.0
04/03:00pm 20.3 - 6.6 41 7.1 - - - - - - - 0.0
04/02:30pm 19.5 - 5.9 41 6.9 - - - - - - - 0.0
04/02:00pm 19.3 - 5.7 41 6.9 - - - - - - - 0.0
04/01:30pm 19.0 - 5.5 41 6.8 - - - - - - - 0.0
04/01:00pm 19.2 - 5.6 41 6.9 - - - - - - - 0.0
04/12:30pm 18.5 - 6.0 44 6.3 - - - - - - - 0.0
04/12:00pm 18.2 - 4.7 41 6.6 - - - - - - - 0.0
04/11:30am 17.6 - 3.5 39 6.7 - - - - - - - 0.0
04/11:00am 18.0 - 7.4 50 5.5 - - - - - - - 0.0
04/10:30am 16.0 - 5.0 48 5.4 - - - - - - - 0.0
04/10:00am 15.2 - 5.1 51 4.9 - - - - - - - 0.0
04/09:30am 15.1 - 6.7 57 4.2 - - - - - - - 0.0
04/09:00am 14.0 - 4.9 54 4.4 - - - - - - - 0.6
04/08:30am 12.9 - 4.8 58 3.8 - - - - - - - 0.6
04/08:00am 12.5 - 5.2 61 3.5 - - - - - - - 0.6
04/07:30am 10.8 - 4.9 67 2.8 - - - - - - - 0.6
04/07:00am 9.8 - 5.6 75 2.0 - - - - - - - 0.4
04/06:30am 6.9 - 4.7 86 1.0 - - - - - - - 0.4
04/06:00am 7.1 - 4.4 83 1.2 - - - - - - - 0.4
04/05:30am 7.9 - 4.3 78 1.6 - - - - - - - 0.4
04/05:00am 9.3 - 4.5 72 2.2 - - - - - - - 0.4
04/04:30am 9.8 - 4.6 70 2.4 - - - - - - - 0.4
04/04:00am 10.0 - 4.2 67 2.7 - - - - - - - 0.4
04/03:30am 10.5 - 3.8 63 3.0 - - - - - - - 0.4
04/03:00am 10.8 - 3.6 61 3.3 - - - - - - - 0.4
04/02:30am 11.0 - 3.3 59 3.5 - - - - - - - 0.4
04/02:00am 11.4 - 3.4 58 3.6 - - - - - - - 0.4
04/01:30am 11.1 - 3.4 59 3.5 - - - - - - - 0.4
04/01:00am 11.5 - 3.3 57 3.7 - - - - - - - 0.4
04/12:30am 12.0 - 3.3 55 4.0 - - - - - - - 0.4
04/12:00am 12.4 - 3.4 54 4.1 - - - - - - - 0.4
 
Date/Time
EST
Temp
°C
App
Temp
°C
Dew
Point
Rel
Hum
%
Delta-T
°C
Wind Press
QNH
hPa
Press
MSL
hPa
Rain
since 9 am
mm
Dir
 
Spd
km/h
Gust
km/h
Spd
kts
Gust
kts
03/11:30pm 12.6 - 3.3 53 4.3 - - - - - - - 0.4
03/11:00pm 13.0 - 3.4 52 4.4 - - - - - - - 0.4
03/10:30pm 13.0 - 3.4 52 4.4 - - - - - - - 0.4
03/10:00pm 13.2 - 3.6 52 4.4 - - - - - - - 0.4
03/09:30pm 13.9 - 3.7 50 4.8 - - - - - - - 0.4
03/09:00pm 14.1 - 3.8 50 4.8 - - - - - - - 0.4
03/08:30pm 13.6 - 5.3 57 4.0 - - - - - - - 0.4
03/08:00pm 14.4 - 3.5 48 5.1 - - - - - - - 0.4
03/07:30pm 14.5 - 4.2 50 4.9 - - - - - - - 0.4
03/07:00pm 16.1 - 2.5 40 6.3 - - - - - - - 0.4
03/06:30pm 16.2 - 2.6 40 6.3 - - - - - - - 0.2
03/06:00pm 16.8 - 1.7 36 6.9 - - - - - - - 0.2
03/05:30pm 17.4 - 1.0 33 7.4 - - - - - - - 0.2
03/05:00pm 18.2 - 0.4 30 8.0 - - - - - - - 0.2
03/04:30pm 19.5 - -1.6 24 9.2 - - - - - - - 0.2
03/04:00pm 20.6 - -1.2 23 9.7 - - - - - - - 0.2
03/03:30pm 21.0 - 0.8 26 9.4 - - - - - - - 0.2
03/03:00pm 20.8 - 3.1 31 8.6 - - - - - - - 0.2
03/02:30pm 20.6 - 4.6 35 8.0 - - - - - - - 0.2
03/02:00pm 20.5 - 5.7 38 7.5 - - - - - - - 0.2
03/01:30pm 19.8 - 6.9 43 6.7 - - - - - - - 0.2
03/01:00pm 19.6 - 7.7 46 6.3 - - - - - - - 0.2
03/12:30pm 18.9 - 8.8 52 5.4 - - - - - - - 0.2
03/12:00pm 17.6 - 7.9 53 5.1 - - - - - - - 0.2
03/11:30am 18.8 - 10.1 57 4.8 - - - - - - - 0.2
03/11:00am 18.5 - 14.0 75 2.6 - - - - - - - 0.2
03/10:30am 18.4 - 14.9 80 2.1 - - - - - - - 0.0
03/10:00am 18.7 - 16.3 86 1.5 - - - - - - - 0.0
03/09:30am 17.7 - 15.7 88 1.2 - - - - - - - 0.0
03/09:00am 17.4 - 15.7 90 1.0 - - - - - - - 0.4
03/08:30am 17.1 - 17.4 - - - - - - - - - 0.4
03/08:00am 16.5 - 16.2 98 0.2 - - - - - - - 0.4
03/07:30am 16.3 - 14.8 91 0.9 - - - - - - - 0.4
03/07:00am 16.5 - 14.7 89 1.1 - - - - - - - 0.4
03/06:30am 16.2 - 14.4 89 1.1 - - - - - - - 0.4
03/06:00am 16.2 - 14.6 90 0.9 - - - - - - - 0.4
03/05:30am 16.0 - 14.7 92 0.8 - - - - - - - 0.4
03/05:00am 15.8 - 15.6 99 0.1 - - - - - - - 0.4
03/04:30am 15.6 - 15.6 100 0.0 - - - - - - - 0.4
03/04:00am 15.3 - 15.3 100 0.0 - - - - - - - 0.2
03/03:30am 15.3 - 15.1 99 0.1 - - - - - - - 0.2
03/03:00am 15.1 - 14.9 99 0.1 - - - - - - - 0.2
03/02:30am 15.0 - 14.7 98 0.2 - - - - - - - 0.2
03/02:00am 14.9 - 14.1 95 0.5 - - - - - - - 0.2
03/01:30am 15.0 - 13.5 91 0.9 - - - - - - - 0.0
03/01:00am 15.0 - 13.4 90 0.9 - - - - - - - 0.0
03/12:30am 15.0 - 13.2 89 1.0 - - - - - - - 0.0
03/12:00am 15.1 - 13.0 87 1.2 - - - - - - - 0.0
 
Date/Time
EST
Temp
°C
App
Temp
°C
Dew
Point
Rel
Hum
%
Delta-T
°C
Wind Press
QNH
hPa
Press
MSL
hPa
Rain
since 9 am
mm
Dir
 
Spd
km/h
Gust
km/h
Spd
kts
Gust
kts
02/11:30pm 15.1 - 12.8 86 1.3 - - - - - - - 0.0
02/11:00pm 15.2 - 12.5 84 1.5 - - - - - - - 0.0
02/10:30pm 15.1 - 12.1 82 1.7 - - - - - - - 0.0
02/10:00pm 15.1 - 11.5 79 2.0 - - - - - - - 0.0
02/09:30pm 14.7 - 10.1 74 2.5 - - - - - - - 0.0
02/09:00pm 14.6 - 9.2 70 2.8 - - - - - - - 0.0
02/08:30pm 14.9 - 8.4 65 3.4 - - - - - - - 0.0
02/08:00pm 15.5 - 8.0 61 3.9 - - - - - - - 0.0
02/07:30pm 15.8 - 7.8 59 4.1 - - - - - - - 0.0
02/07:00pm 16.3 - 8.0 58 4.3 - - - - - - - 0.0
02/06:30pm 17.0 - 7.9 55 4.7 - - - - - - - 0.0
02/06:00pm 17.8 - 5.1 43 6.3 - - - - - - - 0.0
02/05:30pm 17.1 - 1.9 36 7.0 - - - - - - - 0.0
02/05:00pm 18.9 - 2.7 34 7.7 - - - - - - - 0.0
02/04:30pm 20.7 - 2.0 29 8.9 - - - - - - - 0.0
02/04:00pm 21.8 - 0.9 25 9.8 - - - - - - - 0.0
02/03:30pm 22.5 - 2.1 26 9.8 - - - - - - - 0.0
02/03:00pm 22.5 - 0.9 24 10.2 - - - - - - - 0.0
02/02:30pm 22.6 - 1.0 24 10.2 - - - - - - - 0.0
02/02:00pm 22.8 - 1.2 24 10.3 - - - - - - - 0.0
02/01:30pm 22.9 - 1.3 24 10.3 - - - - - - - 0.0
02/01:00pm 22.9 - 1.3 24 10.3 - - - - - - - 0.0
02/12:30pm 23.1 - 3.6 28 9.7 - - - - - - - 0.0
02/12:00pm 22.3 - 4.8 32 8.9 - - - - - - - 0.0
02/11:30am 21.4 - 3.1 30 8.9 - - - - - - - 0.0
02/11:00am 20.7 - 2.0 29 8.9 - - - - - - - 0.0
02/10:30am 21.4 - 2.6 29 9.1 - - - - - - - 0.0
02/10:00am 20.6 - 1.5 28 9.0 - - - - - - - 0.0
02/09:30am 20.3 - 1.7 29 8.8 - - - - - - - 0.0
02/09:00am 19.1 - 5.2 40 7.0 - - - - - - - 0.0
02/08:30am 14.4 - 8.6 68 3.0 - - - - - - - 0.0
02/08:00am 10.7 - 7.4 80 1.6 - - - - - - - 0.0
02/07:30am 6.9 - 5.2 89 0.8 - - - - - - - 0.0
02/07:00am 3.5 - - - - - - - - - - - 0.0
02/06:30am 1.5 - 1.1 97 0.2 - - - - - - - 0.0
02/06:00am 1.3 - 0.3 93 0.4 - - - - - - - 0.0
02/05:30am 1.1 - 0.1 93 0.4 - - - - - - - 0.0
02/05:00am 1.4 - 0.4 93 0.4 - - - - - - - 0.0
02/04:30am 1.5 - 0.5 93 0.4 - - - - - - - 0.0
02/04:00am 1.6 - 0.4 92 0.5 - - - - - - - 0.0
02/03:30am 1.7 - 0.5 92 0.5 - - - - - - - 0.0
02/03:00am 2.2 - 1.0 92 0.5 - - - - - - - 0.0
02/02:30am 2.1 - 0.6 90 0.6 - - - - - - - 0.0
02/02:00am 2.5 - 1.0 90 0.6 - - - - - - - 0.0
02/01:30am 2.7 - 0.9 88 0.7 - - - - - - - 0.0
02/01:00am 3.3 - 1.5 88 0.7 - - - - - - - 0.0
02/12:30am 3.8 - 1.8 87 0.8 - - - - - - - 0.0
02/12:00am 4.2 - 1.7 84 1.0 - - - - - - - 0.0
 
Date/Time
EST
Temp
°C
App
Temp
°C
Dew
Point
Rel
Hum
%
Delta-T
°C
Wind Press
QNH
hPa
Press
MSL
hPa
Rain
since 9 am
mm
Dir
 
Spd
km/h
Gust
km/h
Spd
kts
Gust
kts
01/11:30pm 4.9 - 1.9 81 1.2 - - - - - - - 0.0
01/11:00pm 5.4 - 2.4 81 1.3 - - - - - - - 0.0
01/10:30pm 5.3 - 1.6 77 1.5 - - - - - - - 0.0

Other Formats:

Comma delimited format used in spreadsheet applications
http://www.bom.gov.au/fwo/IDQ60801/IDQ60801.94557.axf

JavaScript Object Notation format (JSON) in row-major order
http://www.bom.gov.au/fwo/IDQ60801/IDQ60801.94557.json